ESTA

Ängelholm-Helsingborg Airport

Ängelholm, Sweden
METAR ESTA 231120Z 29030G42KT 9999 BKN020 12/09 Q0997
Observed Flight Rules
Oct-23 @ 11:20 UTC (30 minutes ago) Marginal Visual Flight Rules
Wind Visibility Clouds
290° at 30 knots
 Gusting to 42 knots
10,000+ meters
  • Broken at 2,000' AGL
Temperatures Readings
Current 12°C / 54°F
Dewpoint 9°C / 48°F
Humidity 82%
Altimeter 29.44" Hg
Pressure 997 hPa
Elevation 47
METAR ESTA 231120Z 29030G42KT 9999 BKN020 12/09 Q0997
Observed Flight Rules
Oct-23 @ 11:20 UTC
(30 minutes ago)
MVFR
Wind Visibility
290° at 30 knots
 Gusting to 42 knots
10,000+ meters
Clouds
  • Broken at 2,000' AGL
Temperature Dewpoint
12°C / 54°F 9°C / 48°F
Humidity Altimeter Pressure
82% 29.44" Hg 997 hPa